Time;durP1;ratioP1;P1;durP2;ratioP2;P2;SDS_P1;SDS_P2;PMS_P1;PMS_P2;Temp;Humidity;BMP_temperature;BMP_pressure;BME280_temperature;BME280_humidity;BME280_pressure;Samples;Min_cycle;Max_cycle;Signal;HPM_P1;HPM_P2
2023/03/11 00:00:50;;;;;;;;;12.00;7.75;;;;;8.61;100.00;100606.69;5077647;28;45359;-81
2023/03/11 00:03:18;;;;;;;;;15.00;8.00;;;;;8.60;100.00;100611.06;5076254;28;45410;-79
2023/03/11 00:05:45;;;;;;;;;7.00;5.25;;;;;8.61;100.00;100620.72;5076389;28;45647;-79
2023/03/11 00:08:13;;;;;;;;;7.00;7.00;;;;;8.63;100.00;100621.66;5076856;28;45570;-79
2023/03/11 00:10:40;;;;;;;;;9.00;7.00;;;;;8.62;100.00;100630.38;5059136;28;45407;-81
2023/03/11 00:13:07;;;;;;;;;9.25;5.50;;;;;8.64;100.00;100635.72;5077371;28;45504;-80
2023/03/11 00:15:33;;;;;;;;;6.00;6.00;;;;;8.63;100.00;100636.56;5059391;28;47592;-80
2023/03/11 00:17:59;;;;;;;;;5.75;4.75;;;;;8.66;100.00;100645.38;5076557;28;45527;-81
2023/03/11 00:20:27;;;;;;;;;6.00;3.50;;;;;8.68;100.00;100636.63;5076719;28;46143;-80
2023/03/11 00:22:53;;;;;;;;;4.50;3.75;;;;;8.68;100.00;100618.19;5081323;27;45377;-80
2023/03/11 00:25:20;;;;;;;;;3.00;3.00;;;;;8.66;100.00;100613.78;5076491;28;47414;-80
2023/03/11 00:27:45;;;;;;;;;3.00;3.00;;;;;8.69;100.00;100620.88;5175633;22;45580;-81
2023/03/11 00:30:12;;;;;;;;;7.50;3.75;;;;;8.70;100.00;100606.84;5076758;27;45740;-82
2023/03/11 00:32:37;;;;;;;;;3.00;3.00;;;;;8.70;100.00;100596.31;5075921;28;45692;-81
2023/03/11 00:35:03;;;;;;;;;3.00;3.00;;;;;8.68;100.00;100600.66;5071813;28;45347;-80
2023/03/11 00:37:28;;;;;;;;;3.00;3.00;;;;;8.71;100.00;100613.00;5076518;27;45499;-80
2023/03/11 00:39:54;;;;;;;;;3.00;3.00;;;;;8.70;100.00;100619.13;5077314;28;45456;-83
2023/03/11 00:42:19;;;;;;;;;6.25;5.25;;;;;8.70;100.00;100619.13;5075531;28;60733;-79
2023/03/11 00:44:44;;;;;;;;;8.50;6.00;;;;;8.71;100.00;100641.94;5075806;28;67883;-79
2023/03/11 00:47:10;;;;;;;;;2.75;2.75;;;;;8.71;100.00;100631.41;5075381;28;61502;-79
2023/03/11 00:49:36;;;;;;;;;0.75;0.75;;;;;8.71;100.00;100618.25;5077492;27;45449;-79
2023/03/11 00:52:02;;;;;;;;;3.00;3.00;;;;;8.71;100.00;100595.44;5076579;28;45506;-80
2023/03/11 00:54:27;;;;;;;;;3.00;3.00;;;;;8.73;100.00;100591.06;5059331;28;49131;-80
2023/03/11 00:56:52;;;;;;;;;2.00;2.00;;;;;8.73;100.00;100595.44;5076338;28;68586;-79
2023/03/11 00:59:18;;;;;;;;;2.00;2.00;;;;;8.73;100.00;100598.97;5076511;28;63217;-79
2023/03/11 01:01:43;;;;;;;;;3.00;3.00;;;;;8.73;100.00;100616.50;5075332;28;60221;-80
2023/03/11 01:04:08;;;;;;;;;2.00;2.00;;;;;8.71;100.00;100615.63;5075734;27;67183;-80
2023/03/11 01:06:34;;;;;;;;;3.00;3.00;;;;;8.71;100.00;100623.50;5074649;28;67861;-82
2023/03/11 01:08:59;;;;;;;;;3.50;2.75;;;;;8.71;100.00;100640.19;5075366;28;45850;-79
2023/03/11 01:11:25;;;;;;;;;2.00;2.00;;;;;8.69;100.00;100631.41;5075906;28;45461;-82
2023/03/11 01:13:50;;;;;;;;;2.00;2.00;;;;;8.70;100.00;100630.53;5078025;28;47282;-80
2023/03/11 01:16:15;;;;;;;;;2.50;2.50;;;;;8.71;100.00;100615.63;5076074;28;45558;-80
2023/03/11 01:18:41;;;;;;;;;2.00;2.00;;;;;8.72;100.00;100605.09;5076231;28;64735;-78
2023/03/11 01:21:06;;;;;;;;;4.25;2.00;;;;;8.74;100.00;100603.41;5076451;28;61524;-80
2023/03/11 01:23:32;;;;;;;;;4.50;4.25;;;;;8.75;100.00;100615.69;5071137;28;59853;-81
2023/03/11 01:25:57;;;;;;;;;5.50;3.00;;;;;8.73;100.00;100617.41;5077742;27;45336;-82
2023/03/11 01:28:23;;;;;;;;;2.00;2.00;;;;;8.75;100.00;100626.22;5074796;28;45417;-80
2023/03/11 01:30:48;;;;;;;;;1.25;1.25;;;;;8.76;100.00;100622.72;5077272;28;45645;-80
2023/03/11 01:33:16;;;;;;;;;2.75;2.75;;;;;8.77;100.00;100615.69;5073634;27;63736;-80
2023/03/11 01:35:42;;;;;;;;;1.75;1.75;;;;;8.76;100.00;100620.09;5057976;28;45520;-79
2023/03/11 01:38:08;;;;;;;;;2.00;2.00;;;;;8.76;100.00;100619.22;5078334;28;45404;-79
2023/03/11 01:40:40;;;;;;;;;1.75;1.00;;;;;8.75;100.00;100634.13;5079384;28;45508;-80
2023/03/11 01:43:06;;;;;;;;;4.00;1.00;;;;;8.75;100.00;100622.72;5078326;28;47511;-79
2023/03/11 01:46:01;;;;;;;;;2.00;1.00;;;;;8.74;100.00;100639.38;5079546;28;45356;-78
2023/03/11 01:48:26;;;;;;;;;2.00;1.00;;;;;8.73;100.00;100627.94;5081947;28;45461;-80
2023/03/11 01:50:52;;;;;;;;;0.00;0.00;;;;;8.72;100.00;100612.13;5082908;28;45579;-80
2023/03/11 01:53:17;;;;;;;;;1.50;1.50;;;;;8.73;100.00;100627.94;5079127;28;51284;-80
2023/03/11 01:55:44;;;;;;;;;1.50;1.50;;;;;8.73;100.00;100624.41;5079648;28;45327;-79
2023/03/11 01:58:11;;;;;;;;;3.00;1.75;;;;;8.73;100.00;100637.56;5080589;28;45388;-80
2023/03/11 02:00:37;;;;;;;;;4.00;2.25;;;;;8.73;100.00;100637.56;5079682;28;45402;-80
2023/03/11 02:03:08;;;;;;;;;3.75;2.00;;;;;8.73;100.00;100641.09;5080538;28;46853;-80
2023/03/11 02:05:34;;;;;;;;;3.00;3.00;;;;;8.72;100.00;100639.31;5079536;28;45586;-82
2023/03/11 02:07:59;;;;;;;;;5.25;2.50;;;;;8.75;100.00;100651.66;5079259;28;61631;-79
2023/03/11 02:10:25;;;;;;;;;6.75;3.75;;;;;8.73;100.00;100638.44;5079253;28;62978;-79
2023/03/11 02:12:51;;;;;;;;;7.25;5.00;;;;;8.73;100.00;100641.09;5080231;28;67074;-80
2023/03/11 02:15:16;;;;;;;;;5.50;5.50;;;;;8.72;100.00;100644.59;5080212;28;62676;-79
2023/03/11 02:17:42;;;;;;;;;7.25;7.00;;;;;8.71;100.00;100645.44;5079313;28;45493;-80
2023/03/11 02:20:43;;;;;;;;;8.25;5.75;;;;;8.74;100.00;100645.53;5081504;28;45311;-79
2023/03/11 02:23:10;;;;;;;;;6.25;5.75;;;;;8.73;100.00;100643.72;5076747;28;45599;-80
2023/03/11 02:25:58;;;;;;;;;9.50;6.25;;;;;8.71;100.00;100634.03;5062605;28;46538;-80
2023/03/11 02:28:26;;;;;;;;;10.00;6.75;;;;;8.72;100.00;100635.81;5073099;27;45414;-79
2023/03/11 02:30:51;;;;;;;;;12.25;6.75;;;;;8.71;100.00;100652.47;5080894;28;45199;-79
2023/03/11 02:33:17;;;;;;;;;8.75;6.75;;;;;8.68;100.00;100645.41;5076446;28;46027;-80
2023/03/11 02:35:43;;;;;;;;;7.50;7.00;;;;;8.64;100.00;100648.88;5081667;27;45635;-80
2023/03/11 02:38:08;;;;;;;;;7.00;5.25;;;;;8.60;100.00;100639.13;5081211;27;45222;-81
2023/03/11 02:40:47;;;;;;;;;13.00;7.50;;;;;8.58;100.00;100636.50;5080105;28;54614;-79
2023/03/11 02:43:13;;;;;;;;;10.00;6.00;;;;;8.51;100.00;100603.03;5064151;28;48791;-79
2023/03/11 02:45:40;;;;;;;;;6.00;3.50;;;;;8.46;100.00;100609.09;5079278;28;45505;-79
2023/03/11 02:48:08;;;;;;;;;7.00;5.50;;;;;8.39;100.00;100595.84;5080244;28;50156;-81
2023/03/11 02:50:36;;;;;;;;;6.75;5.00;;;;;8.34;100.00;100602.72;5081248;28;45612;-80
2023/03/11 02:53:01;;;;;;;;;3.50;3.50;;;;;8.32;100.00;100614.09;5079630;28;46437;-80
2023/03/11 02:55:26;;;;;;;;;5.25;5.00;;;;;8.29;100.00;100616.66;5081940;27;45491;-79
2023/03/11 02:57:51;;;;;;;;;5.75;5.75;;;;;8.26;100.00;100612.25;5080526;28;63620;-82
2023/03/11 03:00:17;;;;;;;;;5.50;5.50;;;;;8.25;100.00;100626.25;5081924;27;64047;-80
2023/03/11 03:02:44;;;;;;;;;7.50;6.00;;;;;8.21;100.00;100618.31;5080606;28;46556;-79
2023/03/11 03:05:09;;;;;;;;;7.50;5.75;;;;;8.26;100.00;100621.91;5080747;28;45523;-80
2023/03/11 03:07:35;;;;;;;;;5.75;5.25;;;;;8.25;100.00;100622.72;5077857;28;45478;-82
2023/03/11 03:10:01;;;;;;;;;5.50;5.50;;;;;8.24;100.00;100626.22;5076966;28;45499;-83
2023/03/11 03:12:26;;;;;;;;;8.00;7.00;;;;;8.24;100.00;100616.59;5077932;28;46245;-80
2023/03/11 03:14:51;;;;;;;;;7.50;6.00;;;;;8.23;100.00;100614.81;5075978;28;63247;-80
2023/03/11 03:17:17;;;;;;;;;7.00;6.50;;;;;8.21;100.00;100611.28;5078128;27;59894;-79
2023/03/11 03:19:42;;;;;;;;;5.50;5.50;;;;;8.19;100.00;100615.63;5078941;27;45217;-80
2023/03/11 03:22:08;;;;;;;;;5.00;5.00;;;;;8.22;100.00;100614.81;5079204;27;45716;-80
2023/03/11 03:24:33;;;;;;;;;3.00;3.00;;;;;8.23;100.00;100609.56;5077568;27;62473;-82
2023/03/11 03:26:58;;;;;;;;;6.00;3.50;;;;;8.23;100.00;100583.25;5079197;28;59109;-79
2023/03/11 03:29:27;;;;;;;;;2.25;2.25;;;;;8.24;100.00;100598.19;5079436;28;58490;-80
2023/03/11 03:31:53;;;;;;;;;6.00;4.00;;;;;8.23;100.00;100595.53;5077806;28;45481;-79
2023/03/11 03:34:19;;;;;;;;;5.00;5.00;;;;;8.23;100.00;100599.03;5077831;27;45437;-80
2023/03/11 03:36:44;;;;;;;;;9.25;6.75;;;;;8.23;100.00;100600.78;5078836;28;45511;-80
2023/03/11 03:39:09;;;;;;;;;3.00;3.00;;;;;8.20;100.00;100601.59;5079373;28;62567;-81
2023/03/11 03:41:35;;;;;;;;;5.00;2.00;;;;;8.23;100.00;100596.41;5078564;28;69430;-80
2023/03/11 03:44:01;;;;;;;;;5.50;2.50;;;;;8.23;100.00;100603.41;5079716;28;68643;-79
2023/03/11 03:46:27;;;;;;;;;2.25;2.25;;;;;8.23;100.00;100604.31;5078194;28;65153;-80
2023/03/11 03:48:52;;;;;;;;;7.00;3.00;;;;;8.25;100.00;100597.31;5080718;28;45419;-79
2023/03/11 03:51:17;;;;;;;;;2.50;2.50;;;;;8.26;100.00;100599.09;5078569;28;69726;-79
2023/03/11 03:53:45;;;;;;;;;5.50;3.00;;;;;8.26;100.00;100607.00;5077232;28;67549;-80
2023/03/11 03:56:13;;;;;;;;;3.00;3.00;;;;;8.28;100.00;100609.66;5077790;28;45517;-80
2023/03/11 03:58:38;;;;;;;;;6.50;5.25;;;;;8.27;100.00;100615.78;5081403;27;45523;-80
2023/03/11 04:01:04;;;;;;;;;7.00;6.00;;;;;8.27;100.00;100624.53;5077381;27;69742;-79
2023/03/11 04:03:30;;;;;;;;;6.00;4.50;;;;;8.27;100.00;100603.50;5076828;28;45528;-79
2023/03/11 04:06:09;;;;;;;;;5.00;5.00;;;;;8.31;100.00;100625.47;5078582;27;46051;-80
2023/03/11 04:08:35;;;;;;;;;5.25;5.25;;;;;8.30;100.00;100627.22;5079546;28;45398;-80
2023/03/11 04:11:01;;;;;;;;;7.50;6.00;;;;;8.33;100.00;100629.03;5080209;28;47476;-79
2023/03/11 04:13:26;;;;;;;;;11.75;6.00;;;;;8.31;100.00;100626.38;5078422;28;45364;-80
2023/03/11 04:15:51;;;;;;;;;11.75;7.75;;;;;8.31;100.00;100617.56;5078983;28;56581;-83
2023/03/11 04:18:17;;;;;;;;;8.00;8.00;;;;;8.31;100.00;100615.84;5077358;28;60817;-80
2023/03/11 04:20:42;;;;;;;;;9.00;7.75;;;;;8.32;100.00;100614.09;5079374;28;46634;-79
2023/03/11 04:23:07;;;;;;;;;8.00;7.00;;;;;8.31;100.00;100601.78;5077385;28;69420;-80
2023/03/11 04:25:33;;;;;;;;;11.25;8.75;;;;;8.28;100.00;100600.00;5075732;28;61097;-79
2023/03/11 04:27:58;;;;;;;;;9.50;9.00;;;;;8.31;100.00;100615.84;5077908;28;46205;-80
2023/03/11 04:30:24;;;;;;;;;8.00;6.00;;;;;8.27;100.00;100627.19;5079866;28;46952;-80
2023/03/11 04:32:49;;;;;;;;;7.50;5.00;;;;;8.26;100.00;100614.88;5071244;28;50468;-80
2023/03/11 04:35:14;;;;;;;;;7.00;5.25;;;;;8.25;100.00;100620.97;5074759;28;56773;-80
2023/03/11 04:37:40;;;;;;;;;5.75;4.00;;;;;8.27;100.00;100623.66;5078024;27;61127;-80
2023/03/11 04:40:06;;;;;;;;;6.00;3.50;;;;;8.27;100.00;100637.69;5079132;28;48990;-80
2023/03/11 04:42:31;;;;;;;;;3.00;3.00;;;;;8.28;100.00;100642.09;5079618;28;45284;-79
2023/03/11 04:44:57;;;;;;;;;3.00;2.25;;;;;8.28;100.00;100646.47;5077958;27;57043;-79
2023/03/11 04:47:22;;;;;;;;;6.00;3.50;;;;;8.26;100.00;100633.31;5077911;28;45426;-81
2023/03/11 04:49:47;;;;;;;;;5.25;3.00;;;;;8.28;100.00;100649.09;5076927;27;47057;-79
2023/03/11 04:52:13;;;;;;;;;2.50;2.00;;;;;8.28;100.00;100628.94;5079943;28;45450;-81
2023/03/11 04:54:39;;;;;;;;;4.00;2.75;;;;;8.27;100.00;100631.56;5078370;28;55150;-80
2023/03/11 04:57:04;;;;;;;;;7.00;5.00;;;;;8.27;100.00;100631.56;5078693;28;45183;-81
2023/03/11 04:59:29;;;;;;;;;5.00;3.00;;;;;8.28;100.00;100649.97;5078976;27;45553;-80
2023/03/11 05:01:55;;;;;;;;;4.75;4.75;;;;;8.30;100.00;100648.25;5074449;28;60326;-79
2023/03/11 05:04:20;;;;;;;;;3.00;3.00;;;;;8.30;100.00;100635.09;5078362;28;45871;-80
2023/03/11 05:06:45;;;;;;;;;3.50;3.50;;;;;8.33;100.00;100631.66;5075784;28;65448;-79
2023/03/11 05:09:11;;;;;;;;;5.25;3.00;;;;;8.34;100.00;100644.81;5076972;27;62218;-79
2023/03/11 05:11:36;;;;;;;;;6.25;3.00;;;;;8.35;100.00;100651.84;5075535;28;69473;-79
2023/03/11 05:14:01;;;;;;;;;3.00;3.00;;;;;8.35;100.00;100650.97;5076143;28;65738;-80
2023/03/11 05:16:27;;;;;;;;;4.75;2.25;;;;;8.36;100.00;100668.53;5078164;28;45475;-80
2023/03/11 05:18:52;;;;;;;;;3.50;3.00;;;;;8.35;100.00;100665.00;5077028;27;61678;-80
2023/03/11 05:21:17;;;;;;;;;3.00;2.00;;;;;8.33;100.00;100660.59;5077498;28;64499;-81
2023/03/11 05:23:44;;;;;;;;;2.50;1.75;;;;;8.30;100.00;100656.13;5077985;28;45988;-80
2023/03/11 05:26:09;;;;;;;;;3.00;3.00;;;;;8.25;100.00;100651.66;5076953;28;45339;-80
2023/03/11 05:28:34;;;;;;;;;5.00;2.50;;;;;8.19;100.00;100651.56;5076719;27;46376;-79
2023/03/11 05:31:00;;;;;;;;;4.00;4.00;;;;;8.18;100.00;100655.06;5076308;27;61470;-80
2023/03/11 05:33:25;;;;;;;;;1.50;1.50;;;;;8.13;100.00;100653.22;5071653;28;46689;-80
2023/03/11 05:35:51;;;;;;;;;5.25;2.75;;;;;8.11;100.00;100668.09;5076233;27;45468;-80
2023/03/11 05:38:16;;;;;;;;;3.50;2.75;;;;;8.10;100.00;100666.34;5076367;28;46402;-79
2023/03/11 05:40:41;;;;;;;;;2.50;2.50;;;;;8.08;100.00;100664.50;5076624;27;45539;-80
2023/03/11 05:43:07;;;;;;;;;2.00;2.00;;;;;8.06;100.00;100663.63;5076421;28;63433;-83
2023/03/11 05:45:32;;;;;;;;;2.75;1.75;;;;;8.06;100.00;100695.16;5075886;28;45414;-79
2023/03/11 05:47:57;;;;;;;;;1.50;1.50;;;;;8.02;100.00;100688.94;5076508;28;46150;-80
2023/03/11 05:50:23;;;;;;;;;2.00;2.00;;;;;8.07;100.00;100697.81;5076887;27;45361;-79
2023/03/11 05:52:48;;;;;;;;;5.00;2.50;;;;;8.08;100.00;100693.44;5075239;28;45529;-80
2023/03/11 05:55:13;;;;;;;;;1.50;1.50;;;;;8.06;100.00;100692.53;5075750;28;56184;-80
2023/03/11 05:57:39;;;;;;;;;2.75;2.00;;;;;8.09;100.00;100680.31;5077014;28;71127;-79
2023/03/11 06:00:10;;;;;;;;;6.75;2.00;;;;;8.08;100.00;100667.16;5078014;27;45437;-79
2023/03/11 06:02:36;;;;;;;;;2.00;2.00;;;;;8.09;100.00;100667.16;5075614;28;45367;-80
2023/03/11 06:05:01;;;;;;;;;2.00;2.00;;;;;8.05;100.00;100673.25;5078231;28;45315;-80
2023/03/11 06:07:26;;;;;;;;;2.50;1.50;;;;;8.07;100.00;100679.41;5076638;28;45737;-79
2023/03/11 06:09:52;;;;;;;;;2.00;1.00;;;;;8.07;100.00;100697.81;5077163;28;68972;-79
2023/03/11 06:12:17;;;;;;;;;1.75;1.50;;;;;8.06;100.00;100701.31;5074976;27;63586;-81
2023/03/11 06:14:42;;;;;;;;;3.00;3.00;;;;;8.07;100.00;100694.31;5074584;28;46502;-79
2023/03/11 06:17:08;;;;;;;;;2.00;2.00;;;;;8.07;100.00;100681.16;5074131;28;69448;-80
2023/03/11 06:19:33;;;;;;;;;3.50;2.00;;;;;8.08;100.00;100693.44;5075625;28;45521;-82
2023/03/11 06:21:58;;;;;;;;;2.00;2.00;;;;;8.07;100.00;100699.56;5076324;28;45410;-80
2023/03/11 06:24:24;;;;;;;;;2.00;2.00;;;;;8.04;100.00;100694.22;5079047;27;56147;-81
2023/03/11 06:26:52;;;;;;;;;4.00;2.00;;;;;8.05;100.00;100690.78;5076995;28;64165;-78
2023/03/11 06:29:18;;;;;;;;;1.75;1.00;;;;;8.03;100.00;100684.56;5078024;28;45552;-80
2023/03/11 06:31:43;;;;;;;;;2.25;2.00;;;;;8.03;100.00;100681.94;5079095;28;45445;-81
2023/03/11 06:34:10;;;;;;;;;2.50;2.00;;;;;8.03;100.00;100700.34;5077560;28;61491;-80
2023/03/11 06:36:36;;;;;;;;;3.00;1.00;;;;;8.04;100.00;100697.78;5079780;27;47083;-80
2023/03/11 06:39:01;;;;;;;;;4.50;3.50;;;;;8.06;100.00;100698.69;5079096;28;45419;-79
2023/03/11 06:41:26;;;;;;;;;3.00;3.00;;;;;8.09;100.00;100703.97;5078907;27;45457;-81
2023/03/11 06:43:52;;;;;;;;;3.50;2.00;;;;;8.09;100.00;100696.09;5079439;28;58531;-80
2023/03/11 06:46:19;;;;;;;;;6.00;2.25;;;;;8.11;100.00;100686.50;5076706;28;69102;-79
2023/03/11 06:48:45;;;;;;;;;5.00;1.75;;;;;8.11;100.00;100676.00;5080660;27;45661;-80
2023/03/11 06:51:11;;;;;;;;;8.25;3.00;;;;;8.16;100.00;100683.97;5078193;28;45505;-80
2023/03/11 06:53:36;;;;;;;;;5.50;2.75;;;;;8.19;100.00;100693.63;5078127;28;45567;-80
2023/03/11 06:56:04;;;;;;;;;5.75;4.25;;;;;8.26;100.00;100696.44;5078240;28;46484;-80
2023/03/11 06:58:30;;;;;;;;;2.00;2.00;;;;;8.34;100.00;100700.06;5079132;27;45518;-78
2023/03/11 07:01:00;;;;;;;;;5.00;2.00;;;;;8.37;100.00;100709.81;5080436;28;45268;-79
2023/03/11 07:03:25;;;;;;;;;2.25;2.25;;;;;8.44;100.00;100718.69;5079506;27;45931;-81
2023/03/11 07:05:51;;;;;;;;;5.00;5.00;;;;;8.48;100.00;100725.78;5079274;28;46573;-80
2023/03/11 07:08:16;;;;;;;;;5.25;3.00;;;;;8.50;100.00;100730.19;5078794;28;46137;-80
2023/03/11 07:10:42;;;;;;;;;5.00;2.00;;;;;8.53;100.00;100724.13;5080772;28;45359;-80
2023/03/11 07:13:07;;;;;;;;;3.00;3.00;;;;;8.56;100.00;100729.41;5078720;28;58903;-79
2023/03/11 07:15:32;;;;;;;;;5.00;3.00;;;;;8.55;100.00;100731.16;5095820;27;69562;-79
2023/03/11 07:17:58;;;;;;;;;2.00;2.00;;;;;8.59;100.00;100740.91;5076529;28;45378;-78
2023/03/11 07:20:23;;;;;;;;;3.50;3.50;;;;;8.59;100.00;100734.75;5068176;28;60093;-84
2023/03/11 07:22:48;;;;;;;;;3.00;3.00;;;;;8.57;100.00;100741.72;5080261;27;50605;-80
2023/03/11 07:25:14;;;;;;;;;3.00;3.00;;;;;8.55;100.00;100740.81;5079156;27;61768;-81
2023/03/11 07:27:39;;;;;;;;;3.00;3.00;;;;;8.55;100.00;100746.97;5077000;27;45307;-79
2023/03/11 07:30:05;;;;;;;;;3.00;3.00;;;;;8.56;100.00;100746.09;5075659;27;65242;-77
2023/03/11 07:32:30;;;;;;;;;5.50;3.00;;;;;8.58;100.00;100754.91;5077097;27;45698;-77
2023/03/11 07:34:55;;;;;;;;;1.00;1.00;;;;;8.59;100.00;100753.16;5073323;27;70757;-76
2023/03/11 07:37:21;;;;;;;;;6.25;2.50;;;;;8.60;100.00;100753.19;5069555;28;64442;-76
2023/03/11 07:39:46;;;;;;;;;5.50;2.25;;;;;8.60;100.00;100752.31;5073163;27;61346;-78
2023/03/11 07:42:11;;;;;;;;;6.00;5.00;;;;;8.62;100.00;100767.25;5076487;27;60786;-76
2023/03/11 07:44:36;;;;;;;;;2.25;2.00;;;;;8.66;100.00;100773.47;5073696;27;71687;-78
2023/03/11 07:47:03;;;;;;;;;5.00;4.25;;;;;8.68;100.00;100765.59;5076297;28;64349;-79
2023/03/11 07:49:29;;;;;;;;;1.75;1.75;;;;;8.70;100.00;100754.25;5076997;28;45452;-78
2023/03/11 07:51:55;;;;;;;;;3.00;2.25;;;;;8.72;100.00;100749.88;5075466;27;60271;-81
2023/03/11 07:54:20;;;;;;;;;1.75;1.75;;;;;8.75;100.00;100757.84;5075487;27;45819;-85
2023/03/11 07:56:45;;;;;;;;;5.75;2.00;;;;;8.77;100.00;100745.59;5062846;27;66331;-78
2023/03/11 07:59:11;;;;;;;;;3.00;1.25;;;;;8.83;100.00;100750.06;5070118;27;61318;-80
2023/03/11 08:01:39;;;;;;;;;2.75;1.00;;;;;8.86;100.00;100758.91;5071863;27;60993;-79
2023/03/11 08:04:06;;;;;;;;;4.00;2.00;;;;;8.93;100.00;100773.94;5053694;28;47642;-83
2023/03/11 08:06:33;;;;;;;;;7.00;2.00;;;;;8.97;100.00;100779.28;5075048;28;45469;-83
2023/03/11 08:09:01;;;;;;;;;4.25;2.00;;;;;9.01;100.00;100789.88;5077018;27;46483;-86
2023/03/11 08:11:27;;;;;;;;;2.50;2.50;;;;;9.05;100.00;100782.91;5075600;28;45425;-80
2023/03/11 08:13:52;;;;;;;;;5.25;1.50;;;;;9.08;100.00;100788.22;5076551;28;46383;-83
2023/03/11 08:16:20;;;;;;;;;3.75;1.75;;;;;9.11;100.00;100796.19;5076023;27;45524;-78
2023/03/11 08:18:47;;;;;;;;;1.75;1.75;;;;;9.15;100.00;100795.34;5074586;28;45386;-81
2023/03/11 08:21:15;;;;;;;;;2.50;2.50;;;;;9.18;100.00;100793.66;5079913;27;45293;-78
2023/03/11 08:23:41;;;;;;;;;6.00;2.00;;;;;9.23;100.00;100779.69;5073360;27;45504;-78
2023/03/11 08:26:10;;;;;;;;;2.75;2.00;;;;;9.26;100.00;100775.34;5075191;27;47643;-82
2023/03/11 08:28:35;;;;;;;;;1.25;1.25;;;;;9.29;100.00;100777.16;5079397;27;45377;-78
2023/03/11 08:31:01;;;;;;;;;1.00;1.00;;;;;9.32;100.00;100774.53;5071104;28;45441;-79
2023/03/11 08:33:26;;;;;;;;;2.00;2.00;;;;;9.36;100.00;100781.63;5075146;27;45486;-79
2023/03/11 08:35:52;;;;;;;;;2.00;2.00;;;;;9.36;100.00;100779.88;5074915;28;45549;-79
2023/03/11 08:38:18;;;;;;;;;2.00;2.00;;;;;9.36;100.00;100763.19;5076457;28;45575;-79
2023/03/11 08:40:43;;;;;;;;;6.75;1.00;;;;;9.31;100.00;100759.59;5075281;28;54578;-82
2023/03/11 08:43:12;;;;;;;;;2.00;2.00;;;;;9.25;100.00;100767.41;5080628;27;63589;-79
2023/03/11 08:45:39;;;;;;;;;3.50;2.25;;;;;9.28;100.00;100764.84;5074609;27;45393;-79
2023/03/11 08:48:05;;;;;;;;;3.00;3.00;;;;;9.32;100.00;100777.16;5075970;27;45397;-78
2023/03/11 08:50:30;;;;;;;;;3.00;3.00;;;;;9.36;100.00;100792.16;5072233;27;45543;-77
2023/03/11 08:52:59;;;;;;;;;3.00;3.00;;;;;9.36;100.00;100800.97;5073053;28;64790;-78
2023/03/11 08:55:27;;;;;;;;;4.25;4.25;;;;;9.37;100.00;100794.81;5073345;28;45505;-79
2023/03/11 08:57:52;;;;;;;;;1.75;1.75;;;;;9.44;100.00;100791.44;5069322;27;45813;-79
2023/03/11 09:00:18;;;;;;;;;3.00;2.00;;;;;9.49;100.00;100791.50;5074922;28;45732;-75
2023/03/11 09:02:43;;;;;;;;;2.00;2.00;;;;;9.51;100.00;100795.03;5075923;27;46638;-77
2023/03/11 09:05:09;;;;;;;;;2.75;2.50;;;;;9.53;100.00;100789.78;5074985;28;45430;-78
2023/03/11 09:07:35;;;;;;;;;3.25;1.50;;;;;9.54;100.00;100788.94;5055259;28;45401;-76
2023/03/11 09:10:00;;;;;;;;;6.50;2.00;;;;;9.56;100.00;100785.44;5086190;27;45645;-76
2023/03/11 09:12:25;;;;;;;;;2.75;2.00;;;;;9.57;100.00;100797.75;5088300;27;45690;-75
2023/03/11 09:14:51;;;;;;;;;4.25;2.00;;;;;9.57;100.00;100786.34;5075025;27;45365;-76
2023/03/11 09:17:16;;;;;;;;;1.50;1.50;;;;;9.59;100.00;100782.00;5064189;27;45494;-75
2023/03/11 09:19:41;;;;;;;;;3.50;2.00;;;;;9.67;100.00;100782.97;5076053;27;61255;-75
2023/03/11 09:22:07;;;;;;;;;4.50;3.00;;;;;9.71;100.00;100787.44;5067084;28;45563;-77
2023/03/11 09:24:33;;;;;;;;;4.00;2.50;;;;;9.69;100.00;100784.78;5074537;28;68313;-78
2023/03/11 09:26:59;;;;;;;;;7.25;3.25;;;;;9.73;100.00;100793.59;5076609;27;45461;-77
2023/03/11 09:29:24;;;;;;;;;5.75;4.50;;;;;9.79;100.00;100795.44;5074739;28;45307;-76
2023/03/11 09:31:49;;;;;;;;;3.25;2.00;;;;;9.86;100.00;100787.63;5074090;27;71040;-77
2023/03/11 09:34:15;;;;;;;;;2.00;2.00;;;;;9.87;100.00;100783.25;5075474;28;66654;-77
2023/03/11 09:36:40;;;;;;;;;4.50;2.75;;;;;9.80;100.00;100795.47;5074191;28;64565;-78
2023/03/11 09:39:06;;;;;;;;;3.50;2.00;;;;;9.71;100.00;100783.03;5074838;28;63082;-80
2023/03/11 09:41:53;;;;;;;;;6.50;4.00;;;;;9.62;100.00;100787.28;5074189;28;47542;-75
2023/03/11 09:44:43;;;;;;;;;5.75;4.00;;;;;9.48;100.00;100787.09;5073802;28;46094;-81
2023/03/11 09:47:23;;;;;;;;;3.00;3.00;;;;;9.50;100.00;100798.53;5070694;28;45419;-84
2023/03/11 09:50:06;;;;;;;;;5.00;4.00;;;;;9.65;100.00;100792.63;5075726;28;45362;-78
2023/03/11 09:52:44;;;;;;;;;3.00;3.00;;;;;9.87;100.00;100789.41;5076004;28;46675;-81
2023/03/11 09:55:43;;;;;;;;;3.00;3.00;;;;;10.12;100.00;100789.69;5074991;28;45387;-78
2023/03/11 09:58:14;;;;;;;;;4.00;4.00;;;;;10.27;100.00;100797.81;5067660;28;45391;-82
2023/03/11 10:00:40;;;;;;;;;2.00;2.00;;;;;10.43;100.00;100805.03;5074210;28;46456;-82
2023/03/11 10:03:10;;;;;;;;;2.75;2.25;;;;;10.55;100.00;100801.69;5078801;28;46166;-78
2023/03/11 10:05:36;;;;;;;;;5.25;5.25;;;;;10.69;100.00;100805.31;5079911;28;45641;-82
2023/03/11 10:08:18;;;;;;;;;4.00;4.00;;;;;10.86;100.00;100794.03;5078842;28;56792;-86
2023/03/11 10:10:48;;;;;;;;;4.25;3.75;;;;;10.99;100.00;100803.84;5080405;28;45576;-79
2023/03/11 10:13:24;;;;;;;;;7.25;4.75;;;;;11.09;100.00;100807.47;5078620;28;45753;-79
2023/03/11 10:15:54;;;;;;;;;5.50;4.00;;;;;11.17;100.00;100817.22;5079723;27;45402;-82
2023/03/11 10:18:57;;;;;;;;;5.75;4.00;;;;;11.23;100.00;100819.91;5073915;28;45521;-80
2023/03/11 10:21:37;;;;;;;;;3.50;3.50;;;;;11.29;100.00;100824.34;5079423;27;45537;-83
2023/03/11 10:24:13;;;;;;;;;2.25;2.00;;;;;11.30;100.00;100823.50;5078308;28;46695;-80
2023/03/11 10:26:46;;;;;;;;;3.00;3.00;;;;;11.32;100.00;100803.25;5077754;28;45413;-80
2023/03/11 10:29:14;;;;;;;;;4.00;4.00;;;;;11.38;100.00;100820.91;5078895;28;45509;-84
2023/03/11 10:31:51;;;;;;;;;3.00;3.00;;;;;11.40;100.00;100806.84;5076771;28;45703;-81
2023/03/11 10:34:23;;;;;;;;;5.00;5.00;;;;;11.44;100.00;100811.25;5077166;28;45453;-83
2023/03/11 10:37:10;;;;;;;;;3.50;3.50;;;;;11.49;100.00;100806.88;5077295;28;45409;-82
2023/03/11 10:39:36;;;;;;;;;4.50;2.25;;;;;11.55;100.00;100806.03;5089586;27;45516;-78
2023/03/11 10:42:04;;;;;;;;;4.75;2.75;;;;;11.66;100.00;100808.75;5076668;28;45516;-80
2023/03/11 10:44:35;;;;;;;;;4.00;4.00;;;;;11.73;100.00;100806.16;5058308;28;48690;-80
2023/03/11 10:47:01;;;;;;;;;4.67;3.00;;;;;11.82;100.00;100817.69;5074852;28;45345;-81
2023/03/11 10:49:27;;;;;;;;;6.00;4.25;;;;;11.85;100.00;100818.59;5076461;28;45560;-82
2023/03/11 10:51:54;;;;;;;;;5.00;4.25;;;;;11.88;100.00;100805.41;5077086;28;45624;-82
2023/03/11 10:54:33;;;;;;;;;4.00;4.00;;;;;11.94;100.00;100808.06;5076400;28;47229;-81
2023/03/11 10:57:01;;;;;;;;;2.67;2.67;;;;;12.00;100.00;100796.63;5077205;28;45509;-84
2023/03/11 10:59:31;;;;;;;;;4.00;4.00;;;;;12.09;100.00;100787.84;5077029;28;45475;-82
2023/03/11 11:02:01;;;;;;;;;3.00;3.00;;;;;12.18;99.25;100795.81;5076981;28;45612;-85
2023/03/11 11:04:28;;;;;;;;;2.33;2.33;;;;;12.25;99.08;100795.88;5076490;28;47985;-82
2023/03/11 11:06:54;;;;;;;;;3.00;3.00;;;;;12.29;99.89;100797.63;5077018;28;45559;-82
2023/03/11 11:09:21;;;;;;;;;5.50;4.50;;;;;12.36;97.67;100795.00;5076714;28;45515;-81
2023/03/11 11:12:12;;;;;;;;;4.00;4.00;;;;;12.36;98.04;100795.91;5077499;28;45538;-86
2023/03/11 11:14:41;;;;;;;;;2.67;2.00;;;;;12.38;96.85;100794.13;5075688;28;46108;-81
2023/03/11 11:17:23;;;;;;;;;4.00;4.00;;;;;12.48;97.59;100795.03;5076675;28;45472;-81
2023/03/11 11:19:50;;;;;;;;;3.67;3.67;;;;;12.59;96.96;100799.47;5075243;28;45516;-82
2023/03/11 11:22:18;;;;;;;;;4.33;3.00;;;;;12.68;96.91;100801.28;5070269;28;45403;-81
2023/03/11 11:24:45;;;;;;;;;4.33;4.33;;;;;12.74;95.36;100782.75;5077834;27;46913;-84